National Weather Service Raw Text Product

Displaying AFOS PIL: TAFDSM Received: 2018-04-17 11:42 UTC


625 
FTUS43 KDMX 171142
TAFDSM
TAF
KDSM 171142Z 1712/1812 VRB05KT P6SM SCT250
     FM172100 05004KT P6SM SCT250
     FM180100 09012KT P6SM SCT140
     FM180400 08014KT P6SM BKN050
     FM180900 07015G21KT P6SM -RA BKN014
     FM181100 03013KT 5SM RA OVC010=